sensor_id;sensor_type;location;lat;lon;timestamp;P1;durP1;ratioP1;P2;durP2;ratioP2
31686;SDS011;18285;51.330;4.946;2023-10-09T00:23:27;6.38;;;4.50;;
31686;SDS011;18285;51.330;4.946;2023-10-09T00:47:38;5.32;;;4.20;;
31686;SDS011;18285;51.330;4.946;2023-10-09T01:11:51;5.38;;;4.45;;
31686;SDS011;18285;51.330;4.946;2023-10-09T01:36:13;5.15;;;4.47;;
31686;SDS011;18285;51.330;4.946;2023-10-09T02:00:25;4.93;;;4.05;;
31686;SDS011;18285;51.330;4.946;2023-10-09T02:24:42;5.68;;;4.22;;
31686;SDS011;18285;51.330;4.946;2023-10-09T02:49:07;5.45;;;4.10;;
31686;SDS011;18285;51.330;4.946;2023-10-09T03:13:19;5.38;;;3.85;;
31686;SDS011;18285;51.330;4.946;2023-10-09T03:37:32;4.78;;;3.42;;
31686;SDS011;18285;51.330;4.946;2023-10-09T04:01:45;5.50;;;4.00;;
31686;SDS011;18285;51.330;4.946;2023-10-09T04:25:58;6.40;;;3.50;;
31686;SDS011;18285;51.330;4.946;2023-10-09T05:14:21;8.00;;;3.97;;
31686;SDS011;18285;51.330;4.946;2023-10-09T05:38:48;15.13;;;6.55;;
31686;SDS011;18285;51.330;4.946;2023-10-09T06:03:09;10.70;;;5.60;;
31686;SDS011;18285;51.330;4.946;2023-10-09T06:27:29;10.25;;;5.32;;
31686;SDS011;18285;51.330;4.946;2023-10-09T06:51:39;8.50;;;5.70;;
31686;SDS011;18285;51.330;4.946;2023-10-09T07:15:53;8.75;;;5.15;;
31686;SDS011;18285;51.330;4.946;2023-10-09T07:40:22;8.65;;;5.38;;
31686;SDS011;18285;51.330;4.946;2023-10-09T08:04:41;7.88;;;4.40;;
31686;SDS011;18285;51.330;4.946;2023-10-09T08:29:03;8.65;;;4.90;;
31686;SDS011;18285;51.330;4.946;2023-10-09T08:53:27;6.85;;;4.22;;
31686;SDS011;18285;51.330;4.946;2023-10-09T09:17:38;7.73;;;5.03;;
31686;SDS011;18285;51.330;4.946;2023-10-09T09:41:51;11.20;;;4.03;;
31686;SDS011;18285;51.330;4.946;2023-10-09T10:06:04;5.43;;;3.60;;
31686;SDS011;18285;51.330;4.946;2023-10-09T10:54:41;5.97;;;3.95;;
31686;SDS011;18285;51.330;4.946;2023-10-09T11:18:52;7.00;;;5.03;;
31686;SDS011;18285;51.330;4.946;2023-10-09T11:43:07;5.90;;;4.35;;
31686;SDS011;18285;51.330;4.946;2023-10-09T12:07:23;5.22;;;3.50;;
31686;SDS011;18285;51.330;4.946;2023-10-09T12:31:35;6.28;;;4.18;;
31686;SDS011;18285;51.330;4.946;2023-10-09T12:55:45;5.47;;;3.80;;
31686;SDS011;18285;51.330;4.946;2023-10-09T13:19:57;6.40;;;3.50;;
31686;SDS011;18285;51.330;4.946;2023-10-09T13:44:07;5.70;;;3.60;;
31686;SDS011;18285;51.330;4.946;2023-10-09T14:08:20;4.50;;;3.13;;
31686;SDS011;18285;51.330;4.946;2023-10-09T14:32:36;6.72;;;3.80;;
31686;SDS011;18285;51.330;4.946;2023-10-09T14:56:55;6.30;;;3.58;;
31686;SDS011;18285;51.330;4.946;2023-10-09T15:21:06;11.00;;;4.63;;
31686;SDS011;18285;51.330;4.946;2023-10-09T15:45:18;22.10;;;6.13;;
31686;SDS011;18285;51.330;4.946;2023-10-09T16:09:31;13.50;;;5.85;;
31686;SDS011;18285;51.330;4.946;2023-10-09T16:33:47;14.20;;;6.57;;
31686;SDS011;18285;51.330;4.946;2023-10-09T16:57:58;13.43;;;6.90;;
31686;SDS011;18285;51.330;4.946;2023-10-09T17:22:08;14.53;;;5.70;;
31686;SDS011;18285;51.330;4.946;2023-10-09T17:46:22;16.88;;;6.72;;
31686;SDS011;18285;51.330;4.946;2023-10-09T18:10:33;11.83;;;6.90;;
31686;SDS011;18285;51.330;4.946;2023-10-09T18:34:45;16.83;;;7.40;;
31686;SDS011;18285;51.330;4.946;2023-10-09T18:58:58;11.55;;;5.32;;
31686;SDS011;18285;51.330;4.946;2023-10-09T19:23:17;10.32;;;5.43;;
31686;SDS011;18285;51.330;4.946;2023-10-09T19:47:28;13.73;;;5.23;;
31686;SDS011;18285;51.330;4.946;2023-10-09T20:11:39;7.13;;;5.33;;
31686;SDS011;18285;51.330;4.946;2023-10-09T20:35:49;7.32;;;4.78;;
31686;SDS011;18285;51.330;4.946;2023-10-09T21:00:06;7.60;;;4.90;;
31686;SDS011;18285;51.330;4.946;2023-10-09T21:24:22;8.30;;;4.70;;
31686;SDS011;18285;51.330;4.946;2023-10-09T21:48:34;6.85;;;4.32;;
31686;SDS011;18285;51.330;4.946;2023-10-09T22:12:45;7.28;;;4.22;;
31686;SDS011;18285;51.330;4.946;2023-10-09T22:36:57;5.50;;;4.30;;
31686;SDS011;18285;51.330;4.946;2023-10-09T23:01:13;8.50;;;3.92;;
31686;SDS011;18285;51.330;4.946;2023-10-09T23:25:28;4.57;;;3.63;;
31686;SDS011;18285;51.330;4.946;2023-10-09T23:49:40;5.18;;;3.85;;
